Time;durP1;ratioP1;P1;durP2;ratioP2;P2;SDS_P1;SDS_P2;PMS_P1;PMS_P2;Temp;Humidity;BMP_temperature;BMP_pressure;BME280_temperature;BME280_humidity;BME280_pressure;Samples;Min_cycle;Max_cycle;Signal;HPM_P1;HPM_P2
2021/08/04 00:01:52;;;;;;;11.57;4.40;;;;;;;;;;5019894;28;20480;-64
2021/08/04 00:04:20;;;;;;;8.68;4.28;;;;;;;;;;5024488;28;20056;-64
2021/08/04 00:06:46;;;;;;;5.32;3.45;;;;;;;;;;5024177;28;20045;-64
2021/08/04 00:09:13;;;;;;;5.00;3.33;;;;;;;;;;5027109;28;20132;-64
2021/08/04 00:11:39;;;;;;;4.07;3.30;;;;;;;;;;5022684;28;20065;-63
2021/08/04 00:14:06;;;;;;;6.68;3.65;;;;;;;;;;5026622;28;20544;-64
2021/08/04 00:16:33;;;;;;;7.00;3.55;;;;;;;;;;5023824;28;20045;-64
2021/08/04 00:19:00;;;;;;;4.47;3.65;;;;;;;;;;5028384;28;20087;-64
2021/08/04 00:21:26;;;;;;;7.15;4.13;;;;;;;;;;5028314;28;20046;-64
2021/08/04 00:23:53;;;;;;;7.43;4.45;;;;;;;;;;5030031;28;20135;-65
2021/08/04 00:26:20;;;;;;;5.33;4.03;;;;;;;;;;5023134;28;20084;-64
2021/08/04 00:28:46;;;;;;;8.95;4.30;;;;;;;;;;5029818;28;20130;-64
2021/08/04 00:31:13;;;;;;;8.85;4.30;;;;;;;;;;5023374;28;20127;-64
2021/08/04 00:33:39;;;;;;;8.68;4.47;;;;;;;;;;5022162;28;20045;-63
2021/08/04 00:36:06;;;;;;;5.88;3.97;;;;;;;;;;5022357;28;20164;-64
2021/08/04 00:38:32;;;;;;;9.27;4.10;;;;;;;;;;5026525;28;20412;-64
2021/08/04 00:41:00;;;;;;;11.00;4.55;;;;;;;;;;5028401;28;20077;-64
2021/08/04 00:43:26;;;;;;;6.80;4.13;;;;;;;;;;5024293;28;20053;-64
2021/08/04 00:45:53;;;;;;;6.65;3.80;;;;;;;;;;5022121;28;20052;-64
2021/08/04 00:48:19;;;;;;;12.23;4.22;;;;;;;;;;5024024;28;20045;-64
2021/08/04 00:50:46;;;;;;;5.60;4.18;;;;;;;;;;5028509;28;20573;-64
2021/08/04 00:53:19;;;;;;;6.18;3.70;;;;;;;;;;5023841;28;20641;-64
2021/08/04 00:55:47;;;;;;;9.18;4.18;;;;;;;;;;5028404;28;20560;-64
2021/08/04 00:58:14;;;;;;;4.97;3.45;;;;;;;;;;5025615;28;20137;-64
2021/08/04 01:00:42;;;;;;;9.55;4.03;;;;;;;;;;5029963;28;20073;-64
2021/08/04 01:03:09;;;;;;;4.88;3.88;;;;;;;;;;5019394;28;20053;-64
2021/08/04 01:05:43;;;;;;;12.57;3.75;;;;;;;;;;5022980;28;20052;-64
2021/08/04 01:08:15;;;;;;;7.85;4.07;;;;;;;;;;5024553;28;20137;-64
2021/08/04 01:10:50;;;;;;;5.35;3.90;;;;;;;;;;5022116;28;20129;-64
2021/08/04 01:13:35;;;;;;;6.30;3.75;;;;;;;;;;5023925;28;20136;-64
2021/08/04 01:16:17;;;;;;;5.15;3.50;;;;;;;;;;5026477;28;20077;-64
2021/08/04 01:19:22;;;;;;;11.02;3.78;;;;;;;;;;5025013;28;20092;-64
2021/08/04 01:21:54;;;;;;;10.10;4.50;;;;;;;;;;4961869;28;20117;-64
2021/08/04 01:24:25;;;;;;;8.75;3.92;;;;;;;;;;4968360;28;20142;-64
2021/08/04 01:26:52;;;;;;;14.00;5.47;;;;;;;;;;4997012;28;20100;-64
2021/08/04 01:29:19;;;;;;;11.70;4.93;;;;;;;;;;5026413;28;20061;-64
2021/08/04 01:31:48;;;;;;;13.90;5.10;;;;;;;;;;5026691;28;20879;-64
2021/08/04 01:34:17;;;;;;;53.97;7.75;;;;;;;;;;5022134;28;20120;-64
2021/08/04 01:36:43;;;;;;;51.03;6.95;;;;;;;;;;5024399;28;20149;-64
2021/08/04 01:39:10;;;;;;;7.75;5.60;;;;;;;;;;5023231;28;20053;-64
2021/08/04 01:41:38;;;;;;;21.17;5.50;;;;;;;;;;5025705;28;20073;-64
2021/08/04 01:44:05;;;;;;;13.02;4.88;;;;;;;;;;5023249;28;20479;-63
2021/08/04 01:46:32;;;;;;;;;;;;;;;;;;5023986;28;20132;-64
2021/08/04 01:49:00;;;;;;;48.92;7.10;;;;;;;;;;5019192;28;20401;-64
2021/08/04 01:51:26;;;;;;;36.95;8.60;;;;;;;;;;5021255;28;20045;-64
2021/08/04 01:53:53;;;;;;;41.65;8.77;;;;;;;;;;5024079;28;20071;-64
2021/08/04 01:56:20;;;;;;;11.63;6.78;;;;;;;;;;5028232;28;20143;-64
2021/08/04 01:58:46;;;;;;;9.40;5.10;;;;;;;;;;5024569;28;20136;-64
2021/08/04 02:01:13;;;;;;;7.38;4.63;;;;;;;;;;5025100;28;20129;-63
2021/08/04 02:03:40;;;;;;;8.45;4.10;;;;;;;;;;5022526;28;20120;-64
2021/08/04 02:06:25;;;;;;;9.80;5.85;;;;;;;;;;5025305;28;20765;-64
2021/08/04 02:08:58;;;;;;;12.88;6.60;;;;;;;;;;5021969;28;20487;-64
2021/08/04 02:11:43;;;;;;;14.50;6.57;;;;;;;;;;5025282;28;20056;-64
2021/08/04 02:14:18;;;;;;;16.83;6.75;;;;;;;;;;5026253;28;20080;-64
2021/08/04 02:17:03;;;;;;;14.65;7.57;;;;;;;;;;5026976;28;20141;-64
2021/08/04 02:19:48;;;;;;;11.20;5.80;;;;;;;;;;5023166;28;20140;-65
2021/08/04 02:22:18;;;;;;;13.52;5.03;;;;;;;;;;5027706;28;20472;-64
2021/08/04 02:24:48;;;;;;;12.25;5.20;;;;;;;;;;5021930;28;20038;-64
2021/08/04 02:27:15;;;;;;;8.55;5.05;;;;;;;;;;5025619;28;20132;-64
2021/08/04 02:29:42;;;;;;;9.87;5.13;;;;;;;;;;5024014;28;20290;-64
2021/08/04 02:32:09;;;;;;;12.05;5.93;;;;;;;;;;5026171;28;20116;-64
2021/08/04 02:34:35;;;;;;;10.55;5.47;;;;;;;;;;5025246;28;20128;-64
2021/08/04 02:37:02;;;;;;;17.52;6.50;;;;;;;;;;5022290;28;20057;-64
2021/08/04 02:39:29;;;;;;;9.05;5.68;;;;;;;;;;5022967;28;20132;-64
2021/08/04 02:41:55;;;;;;;7.43;4.90;;;;;;;;;;5022486;28;20446;-64
2021/08/04 02:44:22;;;;;;;11.13;5.25;;;;;;;;;;5015049;28;20077;-64
2021/08/04 02:46:49;;;;;;;15.18;5.35;;;;;;;;;;5020854;28;20788;-64
2021/08/04 02:49:15;;;;;;;14.18;5.65;;;;;;;;;;5023730;28;20132;-65
2021/08/04 02:51:42;;;;;;;7.93;5.23;;;;;;;;;;5022195;28;20077;-64
2021/08/04 02:54:14;;;;;;;13.85;6.20;;;;;;;;;;5018430;28;20084;-64
2021/08/04 02:56:40;;;;;;;9.38;4.97;;;;;;;;;;5021159;28;20128;-64
2021/08/04 02:59:07;;;;;;;8.60;5.35;;;;;;;;;;5024081;28;20053;-64
2021/08/04 03:01:34;;;;;;;9.47;4.83;;;;;;;;;;5025439;28;20084;-64
2021/08/04 03:04:00;;;;;;;11.50;4.90;;;;;;;;;;5022762;28;20300;-64
2021/08/04 03:06:27;;;;;;;7.25;4.03;;;;;;;;;;5020798;28;20076;-64
2021/08/04 03:08:54;;;;;;;8.83;4.50;;;;;;;;;;5018302;28;20050;-64
2021/08/04 03:11:20;;;;;;;9.02;4.75;;;;;;;;;;5020224;28;20783;-64
2021/08/04 03:13:46;;;;;;;7.20;4.43;;;;;;;;;;5022085;28;20075;-64
2021/08/04 03:16:13;;;;;;;13.10;6.00;;;;;;;;;;5021071;28;20197;-64
2021/08/04 03:18:39;;;;;;;13.35;5.57;;;;;;;;;;5022635;28;20077;-64
2021/08/04 03:21:06;;;;;;;8.63;5.70;;;;;;;;;;5021156;28;20136;-64
2021/08/04 03:23:33;;;;;;;7.90;5.10;;;;;;;;;;5026869;28;20124;-64
2021/08/04 03:25:59;;;;;;;9.38;5.40;;;;;;;;;;5021126;28;20077;-64
2021/08/04 03:28:25;;;;;;;7.05;4.85;;;;;;;;;;5022173;28;20556;-64
2021/08/04 03:30:52;;;;;;;9.00;4.95;;;;;;;;;;5024142;28;20128;-64
2021/08/04 03:33:18;;;;;;;31.05;5.85;;;;;;;;;;5023815;28;20144;-64
2021/08/04 03:35:45;;;;;;;11.00;6.20;;;;;;;;;;5020917;28;20470;-64
2021/08/04 03:38:12;;;;;;;10.90;5.93;;;;;;;;;;5027769;28;20140;-64
2021/08/04 03:40:38;;;;;;;9.57;6.00;;;;;;;;;;5027615;28;20478;-64
2021/08/04 03:43:04;;;;;;;12.63;6.30;;;;;;;;;;5021979;28;20156;-64
2021/08/04 03:45:31;;;;;;;26.10;6.10;;;;;;;;;;5027015;28;20128;-64
2021/08/04 03:47:57;;;;;;;22.73;5.78;;;;;;;;;;5027740;28;20136;-64
2021/08/04 03:50:24;;;;;;;11.55;5.93;;;;;;;;;;5025086;28;20148;-64
2021/08/04 03:52:50;;;;;;;81.80;8.68;;;;;;;;;;5029465;28;20124;-63
2021/08/04 03:55:17;;;;;;;15.75;6.40;;;;;;;;;;5026391;28;20080;-64
2021/08/04 03:57:43;;;;;;;12.95;6.32;;;;;;;;;;5023706;28;20056;-64
2021/08/04 04:00:11;;;;;;;17.33;5.78;;;;;;;;;;5024157;28;20052;-64
2021/08/04 04:02:37;;;;;;;12.70;6.10;;;;;;;;;;5028405;28;20473;-64
2021/08/04 04:05:07;;;;;;;23.77;5.88;;;;;;;;;;5028185;28;20640;-64
2021/08/04 04:07:34;;;;;;;18.08;6.35;;;;;;;;;;5025541;28;20128;-64
2021/08/04 04:10:01;;;;;;;14.07;7.13;;;;;;;;;;5027159;28;20490;-64
2021/08/04 04:12:28;;;;;;;26.40;7.05;;;;;;;;;;5023194;28;20545;-64
2021/08/04 04:14:58;;;;;;;18.60;6.43;;;;;;;;;;5026800;28;20144;-64
2021/08/04 04:17:24;;;;;;;11.55;5.20;;;;;;;;;;5024801;28;20046;-64
2021/08/04 04:19:51;;;;;;;14.43;4.53;;;;;;;;;;5025831;28;20066;-64
2021/08/04 04:22:18;;;;;;;12.57;4.43;;;;;;;;;;5020310;28;20137;-64
2021/08/04 04:24:44;;;;;;;8.10;3.80;;;;;;;;;;5026907;28;20124;-64
2021/08/04 04:27:10;;;;;;;11.23;4.50;;;;;;;;;;5023524;28;20144;-64
2021/08/04 04:29:38;;;;;;;6.88;4.25;;;;;;;;;;5024647;28;20564;-64
2021/08/04 04:32:06;;;;;;;7.72;4.20;;;;;;;;;;5024913;28;20524;-64
2021/08/04 04:34:32;;;;;;;10.48;3.90;;;;;;;;;;5025180;28;20493;-64
2021/08/04 04:36:59;;;;;;;7.47;4.43;;;;;;;;;;5024412;28;20137;-64
2021/08/04 04:39:26;;;;;;;7.22;4.18;;;;;;;;;;5022148;28;20412;-63
2021/08/04 04:41:52;;;;;;;5.60;4.13;;;;;;;;;;5026805;28;20125;-64
2021/08/04 04:44:19;;;;;;;8.50;4.25;;;;;;;;;;5024151;28;20188;-64
2021/08/04 04:46:45;;;;;;;6.72;3.67;;;;;;;;;;5023237;28;20080;-64
2021/08/04 04:49:12;;;;;;;7.25;3.70;;;;;;;;;;5026729;28;20137;-64
2021/08/04 04:51:39;;;;;;;4.78;4.15;;;;;;;;;;5025586;28;20184;-64
2021/08/04 04:54:05;;;;;;;5.55;3.47;;;;;;;;;;5024796;28;20059;-64
2021/08/04 04:56:31;;;;;;;4.93;3.35;;;;;;;;;;5021016;28;20132;-64
2021/08/04 04:58:58;;;;;;;7.17;3.83;;;;;;;;;;5026948;28;20091;-64
2021/08/04 05:01:24;;;;;;;13.02;3.60;;;;;;;;;;5024242;28;20077;-64
2021/08/04 05:03:51;;;;;;;7.60;3.85;;;;;;;;;;5024421;28;20053;-64
2021/08/04 05:06:18;;;;;;;6.97;3.97;;;;;;;;;;5025135;28;20046;-64
2021/08/04 05:08:44;;;;;;;6.20;4.00;;;;;;;;;;5028538;28;20128;-64
2021/08/04 05:11:11;;;;;;;7.00;3.90;;;;;;;;;;5025136;28;20077;-64
2021/08/04 05:13:38;;;;;;;7.10;3.40;;;;;;;;;;5022810;28;20128;-64
2021/08/04 05:16:05;;;;;;;4.90;3.70;;;;;;;;;;5024442;28;20876;-64
2021/08/04 05:18:31;;;;;;;7.63;3.95;;;;;;;;;;5028649;28;20041;-64
2021/08/04 05:20:58;;;;;;;4.13;3.30;;;;;;;;;;5034892;28;20096;-64
2021/08/04 05:23:25;;;;;;;7.75;3.80;;;;;;;;;;5023683;28;20517;-64
2021/08/04 05:25:51;;;;;;;6.25;4.65;;;;;;;;;;5023127;28;20502;-64
2021/08/04 05:28:18;;;;;;;5.38;4.03;;;;;;;;;;5018059;28;20080;-64
2021/08/04 05:30:45;;;;;;;7.68;5.03;;;;;;;;;;5025099;28;20145;-64
2021/08/04 05:33:11;;;;;;;6.65;3.90;;;;;;;;;;5020963;28;20056;-63
2021/08/04 05:35:39;;;;;;;5.07;3.83;;;;;;;;;;5024619;28;20600;-63
2021/08/04 05:38:05;;;;;;;5.65;3.95;;;;;;;;;;5025853;28;20470;-64
2021/08/04 05:40:32;;;;;;;5.47;4.32;;;;;;;;;;5027613;28;20827;-63
2021/08/04 05:42:58;;;;;;;7.75;4.22;;;;;;;;;;5023110;28;20153;-63
2021/08/04 05:45:25;;;;;;;6.82;3.95;;;;;;;;;;5026175;28;20056;-63
2021/08/04 05:47:51;;;;;;;4.57;3.42;;;;;;;;;;5027298;28;20132;-63
2021/08/04 05:50:18;;;;;;;7.50;4.32;;;;;;;;;;5027212;28;20129;-63
2021/08/04 05:52:45;;;;;;;9.98;4.13;;;;;;;;;;5028609;28;20548;-63
2021/08/04 05:55:12;;;;;;;8.10;4.25;;;;;;;;;;5025052;28;20064;-63
2021/08/04 05:57:39;;;;;;;5.07;3.85;;;;;;;;;;5020987;28;20125;-63
2021/08/04 06:00:05;;;;;;;13.73;4.32;;;;;;;;;;5028411;28;20093;-63
2021/08/04 06:02:33;;;;;;;4.97;4.00;;;;;;;;;;5017153;28;20049;-63
2021/08/04 06:05:00;;;;;;;5.50;3.90;;;;;;;;;;5027184;28;20061;-64
2021/08/04 06:07:26;;;;;;;6.15;3.78;;;;;;;;;;5024603;28;20483;-64
2021/08/04 06:09:53;;;;;;;7.07;3.70;;;;;;;;;;5024262;28;20069;-64
2021/08/04 06:12:21;;;;;;;9.52;4.38;;;;;;;;;;5024733;28;20218;-63
2021/08/04 06:14:47;;;;;;;7.05;3.67;;;;;;;;;;5022443;28;20085;-63
2021/08/04 06:17:14;;;;;;;5.20;3.70;;;;;;;;;;5019866;28;20049;-64
2021/08/04 06:19:41;;;;;;;6.03;3.37;;;;;;;;;;5023449;28;20136;-63
2021/08/04 06:22:07;;;;;;;9.20;3.97;;;;;;;;;;5021110;28;20068;-63
2021/08/04 06:24:34;;;;;;;13.43;3.80;;;;;;;;;;5010836;28;20103;-63
2021/08/04 06:27:01;;;;;;;5.82;4.00;;;;;;;;;;5023034;28;20045;-63
2021/08/04 06:29:28;;;;;;;5.53;3.63;;;;;;;;;;5023125;28;20475;-63
2021/08/04 06:31:54;;;;;;;9.15;3.38;;;;;;;;;;5027708;28;20085;-63
2021/08/04 06:34:22;;;;;;;8.10;3.70;;;;;;;;;;5019702;28;20129;-63
2021/08/04 06:36:48;;;;;;;7.10;3.60;;;;;;;;;;5023290;28;20199;-63
2021/08/04 06:39:14;;;;;;;8.98;3.47;;;;;;;;;;5021604;28;20085;-63
2021/08/04 06:41:54;;;;;;;5.90;3.20;;;;;;;;;;5023751;28;20045;-63
2021/08/04 06:44:20;;;;;;;6.55;2.92;;;;;;;;;;5021365;28;20066;-63
2021/08/04 06:46:56;;;;;;;7.30;3.00;;;;;;;;;;5024051;28;20121;-63
2021/08/04 06:49:22;;;;;;;5.72;2.60;;;;;;;;;;5018827;28;20077;-63
2021/08/04 06:51:49;;;;;;;7.03;3.10;;;;;;;;;;5022275;28;20136;-63
2021/08/04 06:54:15;;;;;;;5.40;2.70;;;;;;;;;;5022761;28;20144;-63
2021/08/04 06:56:41;;;;;;;7.75;2.80;;;;;;;;;;5020793;28;20069;-63
2021/08/04 06:59:09;;;;;;;4.78;2.90;;;;;;;;;;5025770;28;20073;-64
2021/08/04 07:01:39;;;;;;;7.53;3.33;;;;;;;;;;5023744;28;20569;-63
2021/08/04 07:04:05;;;;;;;6.32;2.58;;;;;;;;;;5021190;28;20052;-63
2021/08/04 07:06:33;;;;;;;6.10;2.67;;;;;;;;;;5019788;28;20056;-64
2021/08/04 07:08:59;;;;;;;4.65;2.40;;;;;;;;;;5016657;28;20135;-64
2021/08/04 07:11:26;;;;;;;7.55;2.28;;;;;;;;;;5019880;28;20135;-63
2021/08/04 07:14:00;;;;;;;3.95;2.10;;;;;;;;;;5023806;28;20350;-63
2021/08/04 07:16:26;;;;;;;5.50;2.45;;;;;;;;;;5019993;28;20054;-63
2021/08/04 07:18:53;;;;;;;7.70;2.70;;;;;;;;;;5019998;28;20060;-63
2021/08/04 07:21:19;;;;;;;7.28;2.00;;;;;;;;;;5020937;28;20164;-64
2021/08/04 07:23:46;;;;;;;7.57;2.75;;;;;;;;;;5022076;28;20140;-64
2021/08/04 07:26:13;;;;;;;5.85;2.03;;;;;;;;;;5021048;28;20085;-63
2021/08/04 07:28:41;;;;;;;5.75;2.13;;;;;;;;;;5020745;28;20053;-63
2021/08/04 07:31:08;;;;;;;6.93;2.65;;;;;;;;;;5022966;28;20072;-64
2021/08/04 07:33:35;;;;;;;4.95;2.05;;;;;;;;;;5028485;28;20052;-63
2021/08/04 07:36:01;;;;;;;6.20;1.90;;;;;;;;;;5021245;28;20093;-63
2021/08/04 07:38:28;;;;;;;6.22;1.92;;;;;;;;;;5018817;28;20153;-63
2021/08/04 07:40:55;;;;;;;3.10;1.73;;;;;;;;;;5024489;28;20041;-64
2021/08/04 07:43:21;;;;;;;4.65;2.20;;;;;;;;;;5021764;28;20151;-63
2021/08/04 07:45:48;;;;;;;5.75;3.65;;;;;;;;;;5018800;28;20524;-63
2021/08/04 07:48:14;;;;;;;4.15;1.50;;;;;;;;;;5019914;28;20069;-63
2021/08/04 07:50:41;;;;;;;3.75;1.60;;;;;;;;;;5020529;28;20054;-63
2021/08/04 07:53:07;;;;;;;4.28;1.65;;;;;;;;;;5028801;28;20081;-63
2021/08/04 07:55:38;;;;;;;2.35;1.70;;;;;;;;;;5021867;28;20052;-63
2021/08/04 07:58:04;;;;;;;3.92;1.90;;;;;;;;;;5024226;28;20168;-63
2021/08/04 08:00:31;;;;;;;4.32;1.90;;;;;;;;;;5024324;28;20081;-63
2021/08/04 08:02:58;;;;;;;6.10;2.08;;;;;;;;;;5018080;28;20046;-63
2021/08/04 08:05:24;;;;;;;7.88;1.67;;;;;;;;;;5026786;28;20111;-63
2021/08/04 08:07:51;;;;;;;3.85;1.55;;;;;;;;;;5018999;28;20632;-63
2021/08/04 08:10:25;;;;;;;5.07;1.80;;;;;;;;;;5014751;28;20133;-63
2021/08/04 08:12:51;;;;;;;3.85;1.70;;;;;;;;;;5023211;28;20113;-64
2021/08/04 08:15:18;;;;;;;7.57;2.03;;;;;;;;;;5021554;28;20081;-63
2021/08/04 08:17:45;;;;;;;5.10;1.92;;;;;;;;;;5025462;28;20600;-63
2021/08/04 08:20:12;;;;;;;5.00;2.03;;;;;;;;;;5026857;28;20468;-63
2021/08/04 08:22:38;;;;;;;7.03;2.50;;;;;;;;;;5023252;28;20140;-63
2021/08/04 08:25:11;;;;;;;4.88;1.83;;;;;;;;;;5028378;28;20060;-63
2021/08/04 08:27:38;;;;;;;3.38;1.90;;;;;;;;;;5024646;28;20073;-63
2021/08/04 08:30:05;;;;;;;4.00;2.10;;;;;;;;;;5024593;28;20115;-63
2021/08/04 08:32:34;;;;;;;3.17;1.75;;;;;;;;;;5024360;28;20044;-63
2021/08/04 08:35:00;;;;;;;5.00;1.85;;;;;;;;;;5027604;28;20045;-63
2021/08/04 08:37:27;;;;;;;5.50;1.77;;;;;;;;;;5024021;28;20124;-63
2021/08/04 08:39:53;;;;;;;5.93;2.03;;;;;;;;;;5019412;28;20045;-63
2021/08/04 08:42:20;;;;;;;3.38;1.90;;;;;;;;;;5027183;28;20303;-63
2021/08/04 08:44:47;;;;;;;5.72;1.92;;;;;;;;;;5027072;28;20046;-63
2021/08/04 08:47:14;;;;;;;3.60;1.95;;;;;;;;;;5027498;28;20100;-63
2021/08/04 08:49:42;;;;;;;4.95;1.70;;;;;;;;;;5027136;28;20051;-63
2021/08/04 08:52:09;;;;;;;;;;;;;;;;;;5027049;28;20129;-63
2021/08/04 08:54:36;;;;;;;4.50;1.90;;;;;;;;;;5026287;28;19992;-64
2021/08/04 08:57:03;;;;;;;2.80;1.73;;;;;;;;;;5025886;28;20103;-63
2021/08/04 08:59:29;;;;;;;3.38;1.65;;;;;;;;;;5025043;28;20057;-63
2021/08/04 09:01:56;;;;;;;4.45;1.60;;;;;;;;;;5021459;28;20645;-65
2021/08/04 09:04:23;;;;;;;;;;;;;;;;;;5023553;28;20068;-64
2021/08/04 09:06:54;;;;;;;2.80;1.88;;;;;;;;;;5018755;28;19972;-64
2021/08/04 09:09:22;;;;;;;7.65;2.47;;;;;;;;;;5023614;28;20521;-63
2021/08/04 09:11:50;;;;;;;6.57;1.80;;;;;;;;;;5019646;28;20472;-63
2021/08/04 09:14:23;;;;;;;2.88;1.90;;;;;;;;;;5038053;28;20133;-64
2021/08/04 09:16:57;;;;;;;3.67;2.00;;;;;;;;;;5028380;28;20630;-63
2021/08/04 09:19:24;;;;;;;3.97;1.90;;;;;;;;;;5036621;28;20128;-64
2021/08/04 09:22:26;;;;;;;4.07;1.90;;;;;;;;;;5038596;28;20085;-63
2021/08/04 09:25:04;;;;;;;4.40;1.70;;;;;;;;;;4979247;28;20057;-64
2021/08/04 09:27:43;;;;;;;6.32;2.08;;;;;;;;;;5016844;28;20045;-64
2021/08/04 09:30:12;;;;;;;3.90;1.98;;;;;;;;;;5023986;28;20509;-64
2021/08/04 09:32:39;;;;;;;3.17;1.60;;;;;;;;;;5028476;28;20127;-64
2021/08/04 09:35:10;;;;;;;8.00;2.10;;;;;;;;;;5028645;28;20060;-64
2021/08/04 09:37:37;;;;;;;5.78;1.95;;;;;;;;;;5022065;28;20085;-64
2021/08/04 09:40:04;;;;;;;5.00;1.88;;;;;;;;;;5024411;28;20081;-64
2021/08/04 09:42:43;;;;;;;5.50;2.13;;;;;;;;;;5027986;28;20092;-64
2021/08/04 09:45:10;;;;;;;7.70;2.05;;;;;;;;;;5022434;28;20092;-64
2021/08/04 09:47:36;;;;;;;5.88;2.03;;;;;;;;;;5027294;28;20237;-64
2021/08/04 09:50:05;;;;;;;5.07;1.77;;;;;;;;;;5027550;28;20136;-64
2021/08/04 09:52:31;;;;;;;4.25;1.73;;;;;;;;;;5024715;28;20137;-64
2021/08/04 09:55:11;;;;;;;5.32;2.05;;;;;;;;;;5022895;28;20140;-64
2021/08/04 09:57:47;;;;;;;4.05;1.70;;;;;;;;;;5026688;28;20093;-64
2021/08/04 10:00:15;;;;;;;4.63;1.60;;;;;;;;;;5020508;28;20044;-64
2021/08/04 10:02:44;;;;;;;3.85;1.73;;;;;;;;;;5024286;28;20485;-64
2021/08/04 10:05:20;;;;;;;4.72;1.92;;;;;;;;;;5026161;28;20041;-64
2021/08/04 10:08:00;;;;;;;5.00;2.22;;;;;;;;;;5024945;28;20552;-63
2021/08/04 10:10:27;;;;;;;2.60;1.50;;;;;;;;;;5025518;28;20041;-64
2021/08/04 10:12:54;;;;;;;3.22;1.90;;;;;;;;;;5024061;28;20085;-64
2021/08/04 10:15:21;;;;;;;3.17;1.50;;;;;;;;;;5024430;28;20104;-64
2021/08/04 10:17:48;;;;;;;4.27;1.67;;;;;;;;;;5023428;28;20045;-64
2021/08/04 10:20:15;;;;;;;4.28;1.77;;;;;;;;;;5026421;28;20854;-64
2021/08/04 10:22:41;;;;;;;6.88;1.98;;;;;;;;;;5022063;28;20129;-64
2021/08/04 10:25:08;;;;;;;4.63;1.90;;;;;;;;;;5019847;28;20521;-64
2021/08/04 10:27:35;;;;;;;;;;;;;;;;;;5018864;28;20138;-64
2021/08/04 10:30:01;;;;;;;4.68;2.00;;;;;;;;;;5021665;28;19929;-64
2021/08/04 10:32:28;;;;;;;6.43;1.87;;;;;;;;;;5020563;28;20049;-64
2021/08/04 10:34:56;;;;;;;6.95;2.22;;;;;;;;;;5026207;28;20132;-64
2021/08/04 10:37:25;;;;;;;3.58;1.75;;;;;;;;;;5025129;28;20052;-64
2021/08/04 10:39:55;;;;;;;3.22;1.92;;;;;;;;;;5024074;28;20121;-64
2021/08/04 10:42:36;;;;;;;5.15;1.92;;;;;;;;;;5023020;28;20096;-64
2021/08/04 10:45:28;;;;;;;4.07;1.90;;;;;;;;;;5022142;28;20104;-64
2021/08/04 10:47:58;;;;;;;3.92;1.80;;;;;;;;;;5019043;28;20128;-63
2021/08/04 10:50:26;;;;;;;4.30;2.03;;;;;;;;;;5025275;28;20155;-64
2021/08/04 10:52:58;;;;;;;5.22;1.73;;;;;;;;;;5023399;28;20095;-64
2021/08/04 10:55:26;;;;;;;2.95;1.80;;;;;;;;;;5022330;28;20145;-64
2021/08/04 10:58:04;;;;;;;54.55;5.03;;;;;;;;;;5020922;28;20084;-64
2021/08/04 11:00:33;;;;;;;22.05;3.30;;;;;;;;;;5019758;28;20141;-64
2021/08/04 11:02:59;;;;;;;5.13;2.00;;;;;;;;;;5023901;28;20041;-64
2021/08/04 11:05:46;;;;;;;6.68;2.50;;;;;;;;;;5018641;28;20107;-64
2021/08/04 11:08:19;;;;;;;5.82;2.28;;;;;;;;;;5018857;28;20132;-64
2021/08/04 11:10:46;;;;;;;8.98;2.67;;;;;;;;;;5023347;28;20502;-64
2021/08/04 11:13:32;;;;;;;4.20;1.77;;;;;;;;;;5024777;28;20355;-64
2021/08/04 11:16:18;;;;;;;3.78;1.85;;;;;;;;;;5019378;28;20045;-64
2021/08/04 11:19:03;;;;;;;3.58;1.70;;;;;;;;;;5021270;28;20045;-64
2021/08/04 11:21:30;;;;;;;4.82;2.03;;;;;;;;;;5018915;28;20089;-64
2021/08/04 11:23:59;;;;;;;4.45;1.67;;;;;;;;;;5022726;28;20124;-64
2021/08/04 11:26:29;;;;;;;7.05;2.03;;;;;;;;;;5016724;28;20557;-64
2021/08/04 11:28:57;;;;;;;4.57;1.70;;;;;;;;;;5022095;28;20045;-64
2021/08/04 11:31:23;;;;;;;3.83;2.08;;;;;;;;;;5020038;28;20238;-64
2021/08/04 11:33:50;;;;;;;5.47;1.83;;;;;;;;;;5018724;28;20510;-64
2021/08/04 11:36:28;;;;;;;5.03;1.95;;;;;;;;;;5019498;28;20136;-64
2021/08/04 11:38:54;;;;;;;5.38;1.98;;;;;;;;;;5021148;28;20673;-64
2021/08/04 11:41:30;;;;;;;4.38;2.17;;;;;;;;;;5025746;28;20591;-64
2021/08/04 11:43:59;;;;;;;7.47;2.13;;;;;;;;;;5019776;28;20517;-64
2021/08/04 11:46:37;;;;;;;5.38;2.00;;;;;;;;;;5021443;28;20055;-64
2021/08/04 11:49:11;;;;;;;3.53;1.70;;;;;;;;;;5017732;28;20086;-64
2021/08/04 11:51:42;;;;;;;7.90;2.10;;;;;;;;;;5023667;28;20446;-64
2021/08/04 11:54:09;;;;;;;4.38;1.80;;;;;;;;;;5043076;28;20485;-64
2021/08/04 11:56:42;;;;;;;6.03;1.85;;;;;;;;;;5025263;28;20180;-64
2021/08/04 11:59:11;;;;;;;4.63;2.10;;;;;;;;;;5024916;28;20618;-64
2021/08/04 12:01:37;;;;;;;7.57;1.93;;;;;;;;;;5023400;28;20136;-64
2021/08/04 12:04:11;;;;;;;3.42;1.58;;;;;;;;;;5019481;28;20859;-64
2021/08/04 12:06:39;;;;;;;2.97;2.00;;;;;;;;;;5022123;28;20050;-64
2021/08/04 12:09:18;;;;;;;5.57;2.30;;;;;;;;;;5018922;28;20133;-64
2021/08/04 12:11:46;;;;;;;7.32;2.17;;;;;;;;;;5023979;28;20140;-64
2021/08/04 12:14:15;;;;;;;4.90;1.90;;;;;;;;;;5025254;28;20044;-64
2021/08/04 12:17:03;;;;;;;3.63;1.92;;;;;;;;;;5025685;28;20052;-64
2021/08/04 12:19:30;;;;;;;5.72;1.90;;;;;;;;;;5015592;28;20498;-64
2021/08/04 12:21:57;;;;;;;6.00;2.10;;;;;;;;;;5021173;28;20120;-64
2021/08/04 12:24:24;;;;;;;3.78;1.98;;;;;;;;;;5020800;28;20140;-64
2021/08/04 12:26:51;;;;;;;5.20;1.67;;;;;;;;;;5021102;28;20174;-64
2021/08/04 12:29:24;;;;;;;6.13;2.20;;;;;;;;;;5022321;28;20632;-64
2021/08/04 12:32:05;;;;;;;4.57;1.70;;;;;;;;;;5024864;28;20100;-64
2021/08/04 12:34:32;;;;;;;3.92;1.63;;;;;;;;;;5025301;28;20148;-64
2021/08/04 12:36:59;;;;;;;4.82;1.80;;;;;;;;;;5024699;28;20417;-64
2021/08/04 12:39:30;;;;;;;6.60;1.75;;;;;;;;;;5025550;28;20069;-64
2021/08/04 12:41:56;;;;;;;4.88;1.88;;;;;;;;;;5024383;28;20136;-64
2021/08/04 12:44:23;;;;;;;3.27;1.37;;;;;;;;;;5025045;28;20081;-64
2021/08/04 12:46:50;;;;;;;3.22;1.58;;;;;;;;;;5024057;28;20145;-62
2021/08/04 12:49:30;;;;;;;2.83;1.70;;;;;;;;;;5021963;28;20057;-62
2021/08/04 12:51:58;;;;;;;4.15;1.90;;;;;;;;;;5020840;28;20088;-62
2021/08/04 12:54:26;;;;;;;4.20;1.73;;;;;;;;;;5029182;28;20088;-62
2021/08/04 12:56:53;;;;;;;6.63;1.63;;;;;;;;;;5020242;28;20584;-62
2021/08/04 12:59:23;;;;;;;6.15;2.17;;;;;;;;;;5022688;28;20132;-61
2021/08/04 13:02:07;;;;;;;7.78;2.10;;;;;;;;;;5027392;28;20140;-62
2021/08/04 13:04:34;;;;;;;5.63;1.88;;;;;;;;;;5022500;28;20060;-62
2021/08/04 13:07:08;;;;;;;3.65;1.80;;;;;;;;;;5028965;28;20049;-62
2021/08/04 13:09:42;;;;;;;4.40;1.92;;;;;;;;;;5019482;28;20061;-62
2021/08/04 13:12:13;;;;;;;2.85;1.83;;;;;;;;;;5027076;28;20141;-61
2021/08/04 13:14:55;;;;;;;3.90;2.03;;;;;;;;;;5021551;28;20144;-62
2021/08/04 13:17:22;;;;;;;3.10;1.70;;;;;;;;;;5024555;28;20049;-62
2021/08/04 13:19:48;;;;;;;5.10;1.75;;;;;;;;;;5024854;28;20161;-61
2021/08/04 13:22:15;;;;;;;4.18;1.80;;;;;;;;;;5021587;28;20103;-62
2021/08/04 13:24:42;;;;;;;5.03;2.30;;;;;;;;;;5022176;28;20132;-62
2021/08/04 13:27:27;;;;;;;3.88;2.15;;;;;;;;;;5022740;28;20511;-61
2021/08/04 13:29:53;;;;;;;3.90;1.80;;;;;;;;;;5021659;28;20132;-62
2021/08/04 13:32:23;;;;;;;5.95;1.88;;;;;;;;;;5025454;28;20068;-62
2021/08/04 13:34:50;;;;;;;3.47;1.75;;;;;;;;;;5023233;28;20132;-62
2021/08/04 13:37:16;;;;;;;5.80;1.88;;;;;;;;;;5025601;28;20144;-62
2021/08/04 13:39:43;;;;;;;6.45;1.90;;;;;;;;;;5015902;28;20125;-62
2021/08/04 13:42:09;;;;;;;5.25;1.77;;;;;;;;;;5017894;28;20088;-62
2021/08/04 13:44:36;;;;;;;3.67;2.23;;;;;;;;;;5021752;28;20128;-60
2021/08/04 13:47:03;;;;;;;2.43;1.40;;;;;;;;;;5023571;28;20802;-61
2021/08/04 13:49:29;;;;;;;3.50;1.57;;;;;;;;;;5026290;28;20626;-61
2021/08/04 13:51:56;;;;;;;7.20;1.98;;;;;;;;;;5026037;28;20046;-61
2021/08/04 13:54:23;;;;;;;6.00;2.20;;;;;;;;;;5020870;28;20497;-61
2021/08/04 13:56:49;;;;;;;5.65;1.75;;;;;;;;;;5016239;28;20137;-61
2021/08/04 13:59:16;;;;;;;8.60;2.38;;;;;;;;;;5024874;28;20053;-62
2021/08/04 14:01:43;;;;;;;;;;;;;;;;;;5022446;28;20137;-62
2021/08/04 14:04:09;;;;;;;5.13;2.00;;;;;;;;;;5023980;28;19921;-62
2021/08/04 14:06:36;;;;;;;4.33;1.57;;;;;;;;;;5023952;28;20080;-62
2021/08/04 14:09:02;;;;;;;9.30;2.25;;;;;;;;;;5033538;28;20695;-61
2021/08/04 14:11:29;;;;;;;7.90;2.70;;;;;;;;;;5027267;28;20053;-61
2021/08/04 14:13:56;;;;;;;6.88;1.70;;;;;;;;;;5020065;28;20136;-64
2021/08/04 14:16:24;;;;;;;7.10;2.10;;;;;;;;;;5017374;28;20148;-64
2021/08/04 14:18:50;;;;;;;7.95;2.10;;;;;;;;;;5023627;28;20048;-64
2021/08/04 14:21:17;;;;;;;6.63;2.22;;;;;;;;;;5021663;28;20465;-64
2021/08/04 14:23:44;;;;;;;5.60;1.73;;;;;;;;;;5027229;28;20560;-64
2021/08/04 14:26:10;;;;;;;9.57;2.53;;;;;;;;;;5018568;28;20058;-64
2021/08/04 14:28:37;;;;;;;5.55;2.10;;;;;;;;;;5020130;28;20049;-64
2021/08/04 14:31:03;;;;;;;9.65;2.03;;;;;;;;;;5023191;28;20140;-64
2021/08/04 14:33:30;;;;;;;8.50;2.10;;;;;;;;;;5026790;28;20067;-64
2021/08/04 14:35:59;;;;;;;5.43;2.00;;;;;;;;;;5021501;28;20137;-64
2021/08/04 14:38:26;;;;;;;7.40;2.20;;;;;;;;;;5026364;28;20075;-64
2021/08/04 14:40:52;;;;;;;7.25;2.63;;;;;;;;;;5023599;28;20141;-64
2021/08/04 14:43:19;;;;;;;5.30;1.95;;;;;;;;;;5020654;28;20045;-64
2021/08/04 14:45:46;;;;;;;6.05;2.08;;;;;;;;;;5021124;28;20077;-64
2021/08/04 14:48:15;;;;;;;9.15;2.30;;;;;;;;;;5026334;28;20084;-65
2021/08/04 14:50:41;;;;;;;7.80;2.08;;;;;;;;;;5027693;28;20080;-64
2021/08/04 14:53:08;;;;;;;9.25;2.20;;;;;;;;;;5027515;28;20080;-64